createdAt,value
2023-04-19T00:01:13.692Z,8.39
2023-04-19T00:06:16.389Z,8.21
2023-04-19T00:11:18.755Z,8.18
2023-04-19T00:16:21.763Z,7.53
2023-04-19T00:21:24.075Z,7.99
2023-04-19T00:26:26.567Z,8.03
2023-04-19T00:31:29.001Z,8.29
2023-04-19T00:36:32.743Z,8.26
2023-04-19T00:41:35.095Z,7.51
2023-04-19T00:46:40.180Z,7.95
2023-04-19T00:51:42.962Z,7.85
2023-04-19T00:56:46.561Z,7.46
2023-04-19T01:01:49.005Z,7.41
2023-04-19T01:06:51.719Z,7.66
2023-04-19T01:11:54.668Z,7.40
2023-04-19T01:16:57.981Z,7.85
2023-04-19T01:22:03.452Z,7.09
2023-04-19T01:27:09.156Z,8.21
2023-04-19T01:32:13.396Z,6.55
2023-04-19T01:37:15.815Z,7.91
2023-04-19T01:42:18.148Z,8.02
2023-04-19T01:47:20.481Z,7.83
2023-04-19T01:52:24.138Z,7.85
2023-04-19T01:57:26.482Z,7.82
2023-04-19T02:02:29.016Z,7.26
2023-04-19T02:07:31.374Z,7.98
2023-04-19T02:12:34.897Z,7.46
2023-04-19T02:17:39.262Z,7.29
2023-04-19T02:22:41.956Z,8.07
2023-04-19T02:27:46.683Z,8.05
2023-04-19T02:32:49.914Z,8.05
2023-04-19T02:37:52.272Z,6.56
2023-04-19T02:42:54.566Z,7.82
2023-04-19T02:47:57.325Z,7.32
2023-04-19T02:53:03.009Z,7.38
2023-04-19T02:58:06.794Z,7.81
2023-04-19T03:03:15.025Z,7.73
2023-04-19T03:08:17.848Z,6.90
2023-04-19T03:13:21.339Z,7.70
2023-04-19T03:18:23.985Z,7.99
2023-04-19T03:23:28.637Z,7.99
2023-04-19T03:28:34.143Z,7.47
2023-04-19T03:33:55.290Z,7.99
2023-04-19T03:39:04.505Z,7.89
2023-04-19T03:44:06.958Z,7.86
2023-04-19T03:49:09.594Z,7.70
2023-04-19T03:54:13.018Z,7.35
2023-04-19T03:59:15.610Z,7.15
2023-04-19T04:04:19.022Z,8.18
2023-04-19T04:09:21.978Z,8.26
2023-04-19T04:14:24.993Z,7.80
2023-04-19T04:19:27.438Z,8.38
2023-04-19T04:24:33.196Z,8.19
2023-04-19T04:29:53.538Z,7.70
2023-04-19T04:34:59.104Z,8.45
2023-04-19T04:40:11.933Z,8.46
2023-04-19T04:45:14.338Z,8.36
2023-04-19T04:50:19.105Z,8.26
2023-04-19T04:55:23.882Z,9.01
2023-04-19T05:00:26.996Z,8.91
2023-04-19T05:05:34.886Z,9.26
2023-04-19T05:10:37.354Z,9.36
2023-04-19T05:15:40.154Z,9.27
2023-04-19T05:20:44.325Z,8.92
2023-04-19T05:25:53.078Z,9.76
2023-04-19T05:30:58.170Z,9.90
2023-04-19T05:36:05.764Z,8.97
2023-04-19T05:41:08.828Z,9.84
2023-04-19T05:46:11.308Z,10.18
2023-04-19T05:51:14.637Z,9.93
2023-04-19T05:56:37.184Z,10.71
2023-04-19T06:01:39.933Z,10.97
2023-04-19T06:06:42.407Z,9.89
2023-04-19T06:11:50.655Z,11.50
2023-04-19T06:16:53.790Z,11.59
2023-04-19T06:21:56.226Z,11.85
2023-04-19T06:26:58.637Z,11.53
2023-04-19T06:32:01.083Z,12.27
2023-04-19T06:37:04.194Z,11.98
2023-04-19T06:42:06.739Z,12.11
2023-04-19T06:47:09.331Z,11.78
2023-04-19T06:52:14.608Z,12.47
2023-04-19T06:57:17.611Z,12.90
2023-04-19T07:02:20.114Z,12.21
2023-04-19T07:07:22.681Z,12.79
2023-04-19T07:12:25.044Z,13.33
2023-04-19T07:17:27.454Z,12.57
2023-04-19T07:22:29.980Z,13.68
2023-04-19T07:27:32.413Z,13.33
2023-04-19T07:32:34.940Z,13.16
2023-04-19T07:37:40.686Z,13.51
2023-04-19T07:42:43.869Z,13.91
2023-04-19T07:47:46.614Z,13.58
2023-04-19T07:52:48.957Z,14.14
2023-04-19T07:57:51.253Z,14.14
2023-04-19T08:02:53.822Z,14.21
2023-04-19T08:07:57.208Z,14.09
2023-04-19T08:13:05.677Z,14.38
2023-04-19T08:18:08.584Z,14.40
2023-04-19T08:23:21.332Z,13.78
2023-04-19T08:28:25.080Z,14.68
2023-04-19T08:33:29.280Z,14.83
2023-04-19T08:38:31.797Z,14.83
2023-04-19T08:43:36.374Z,14.97
2023-04-19T08:48:38.956Z,15.04
2023-04-19T08:53:41.774Z,15.27
2023-04-19T08:58:58.006Z,14.93
2023-04-19T09:09:34.049Z,15.80
2023-04-19T09:14:57.803Z,15.90
2023-04-19T09:20:06.119Z,15.24
2023-04-19T09:30:24.042Z,15.73
2023-04-19T09:35:48.765Z,16.27
2023-04-19T09:40:51.283Z,16.17
2023-04-19T09:45:53.645Z,16.43
2023-04-19T09:51:05.477Z,15.61
2023-04-19T09:56:13.104Z,16.03
2023-04-19T10:01:17.126Z,16.64
2023-04-19T10:11:27.746Z,16.14
2023-04-19T10:16:31.573Z,16.70
2023-04-19T10:21:34.740Z,16.72
2023-04-19T10:27:03.397Z,16.92
2023-04-19T10:32:14.193Z,16.62
2023-04-19T10:37:16.746Z,17.15
2023-04-19T10:42:19.387Z,16.62
2023-04-19T10:47:46.735Z,17.26
2023-04-19T10:52:49.194Z,16.74
2023-04-19T10:58:07.531Z,17.29
2023-04-19T11:03:44.353Z,17.36
2023-04-19T11:08:47.490Z,17.25
2023-04-19T11:13:49.952Z,16.60
2023-04-19T11:18:52.206Z,16.51
2023-04-19T11:24:10.313Z,16.87
2023-04-19T11:29:13.185Z,17.09
2023-04-19T11:34:15.949Z,17.26
2023-04-19T11:39:19.144Z,17.41
2023-04-19T11:44:21.926Z,17.34
2023-04-19T11:49:32.014Z,17.41
2023-04-19T11:54:34.466Z,17.08
2023-04-19T11:59:37.318Z,17.23
2023-04-19T12:04:40.470Z,17.40
2023-04-19T12:09:42.873Z,17.07
2023-04-19T12:14:53.121Z,17.69
2023-04-19T12:19:55.559Z,17.84
2023-04-19T12:24:58.014Z,17.78
2023-04-19T12:30:03.373Z,17.76
2023-04-19T12:35:07.477Z,17.60
2023-04-19T12:40:10.548Z,17.65
2023-04-19T12:45:13.850Z,17.68
2023-04-19T12:50:16.704Z,17.65
2023-04-19T12:55:19.145Z,17.76
2023-04-19T13:00:22.550Z,17.45
2023-04-19T13:05:25.140Z,17.79
2023-04-19T13:10:27.642Z,17.35
2023-04-19T13:15:30.164Z,17.54
2023-04-19T13:20:32.534Z,17.55
2023-04-19T13:25:34.866Z,17.68
2023-04-19T13:30:37.192Z,17.74
2023-04-19T13:35:39.640Z,17.73
2023-04-19T13:40:41.968Z,17.74
2023-04-19T13:45:44.254Z,17.18
2023-04-19T13:50:46.593Z,17.40
2023-04-19T13:55:49.264Z,17.19
2023-04-19T14:00:52.577Z,17.61
2023-04-19T14:05:55.261Z,17.67
2023-04-19T14:10:57.615Z,17.60
2023-04-19T14:16:00.081Z,17.51
2023-04-19T14:21:02.513Z,17.44
2023-04-19T14:26:04.885Z,16.84
2023-04-19T14:31:07.307Z,16.54
2023-04-19T14:36:09.787Z,17.22
2023-04-19T14:41:12.276Z,16.77
2023-04-19T14:46:14.627Z,16.04
2023-04-19T14:51:17.071Z,16.48
2023-04-19T14:56:19.493Z,15.85
2023-04-19T15:01:23.627Z,14.40
2023-04-19T15:06:26.061Z,16.18
2023-04-19T15:11:28.406Z,15.49
2023-04-19T15:16:31.000Z,16.35
2023-04-19T15:21:33.497Z,16.04
2023-04-19T15:26:36.311Z,16.28
2023-04-19T15:31:38.996Z,16.17
2023-04-19T15:36:41.666Z,15.75
2023-04-19T15:41:44.035Z,15.70
2023-04-19T15:46:46.615Z,15.45
2023-04-19T15:51:49.037Z,15.55
2023-04-19T15:56:51.490Z,15.58
2023-04-19T16:01:53.888Z,15.60
2023-04-19T16:06:56.436Z,14.34
2023-04-19T16:11:58.846Z,15.15
2023-04-19T16:17:01.508Z,14.65
2023-04-19T16:22:05.757Z,14.88
2023-04-19T16:27:08.131Z,15.17
2023-04-19T16:32:11.125Z,14.93
2023-04-19T16:37:16.333Z,14.85
2023-04-19T16:42:18.750Z,14.90
2023-04-19T16:47:22.228Z,14.28
2023-04-19T16:52:29.501Z,14.32
2023-04-19T16:57:32.244Z,14.36
2023-04-19T17:02:34.861Z,14.36
2023-04-19T17:07:37.407Z,13.95
2023-04-19T17:12:39.942Z,14.12
2023-04-19T17:17:43.166Z,13.64
2023-04-19T17:22:45.664Z,13.52
2023-04-19T17:27:48.134Z,13.32
2023-04-19T17:32:51.511Z,13.40
2023-04-19T17:37:53.996Z,11.87
2023-04-19T17:42:56.450Z,13.09
2023-04-19T17:47:58.839Z,12.76
2023-04-19T17:53:01.394Z,12.93
2023-04-19T17:58:03.893Z,12.04
2023-04-19T18:03:07.452Z,12.65
2023-04-19T18:08:10.295Z,12.04
2023-04-19T18:13:12.817Z,11.91
2023-04-19T18:18:15.335Z,11.23
2023-04-19T18:23:17.813Z,11.60
2023-04-19T18:28:20.221Z,11.69
2023-04-19T18:33:22.769Z,10.80
2023-04-19T18:38:25.433Z,11.31
2023-04-19T18:43:31.757Z,10.88
2023-04-19T18:48:34.175Z,11.26
2023-04-19T18:53:36.755Z,10.62
2023-04-19T18:58:39.089Z,11.02
2023-04-19T19:04:07.727Z,9.73
2023-04-19T19:09:04.312Z,10.01
2023-04-19T19:14:06.651Z,10.71
2023-04-19T19:19:09.366Z,10.10
2023-04-19T19:24:11.893Z,10.41
2023-04-19T19:29:16.313Z,10.54
2023-04-19T19:34:27.172Z,10.12
2023-04-19T19:39:32.801Z,10.32
2023-04-19T19:44:35.229Z,10.04
2023-04-19T19:54:43.072Z,9.66
2023-04-19T19:59:51.724Z,9.30
2023-04-19T20:04:57.715Z,9.52
2023-04-19T20:10:00.340Z,9.05
2023-04-19T20:15:03.471Z,9.13
2023-04-19T20:20:11.712Z,9.51
2023-04-19T20:25:14.194Z,8.82
2023-04-19T20:30:16.655Z,8.49
2023-04-19T20:35:19.208Z,9.24
2023-04-19T20:40:23.305Z,8.98
2023-04-19T20:45:26.231Z,8.97
2023-04-19T20:50:30.610Z,8.94
2023-04-19T20:55:32.930Z,8.51
2023-04-19T21:00:35.317Z,8.74
2023-04-19T21:05:37.667Z,8.14
2023-04-19T21:10:39.998Z,8.34
2023-04-19T21:15:42.395Z,7.69
2023-04-19T21:20:45.002Z,8.05
2023-04-19T21:25:47.310Z,8.03
2023-04-19T21:30:49.706Z,8.05
2023-04-19T21:35:52.104Z,7.42
2023-04-19T21:40:54.507Z,7.78
2023-04-19T21:45:56.856Z,7.97
2023-04-19T21:50:59.183Z,7.88
2023-04-19T21:56:03.160Z,7.18
2023-04-19T22:01:05.534Z,7.71
2023-04-19T22:06:08.846Z,6.24
2023-04-19T22:11:12.302Z,7.58
2023-04-19T22:16:15.330Z,7.49
2023-04-19T22:21:17.625Z,7.33
2023-04-19T22:26:21.468Z,7.43
2023-04-19T22:31:23.801Z,7.18
2023-04-19T22:36:26.599Z,6.70
2023-04-19T22:41:29.139Z,7.10
2023-04-19T22:46:31.505Z,7.20
2023-04-19T22:51:36.999Z,5.15
2023-04-19T22:56:39.774Z,6.69
2023-04-19T23:01:43.411Z,6.10
2023-04-19T23:06:45.894Z,6.54
2023-04-19T23:11:48.171Z,6.40
2023-04-19T23:16:50.515Z,6.75
2023-04-19T23:21:52.801Z,6.11
2023-04-19T23:26:55.126Z,6.50
2023-04-19T23:31:58.168Z,6.58
2023-04-19T23:37:00.709Z,6.56
2023-04-19T23:42:03.415Z,6.50
2023-04-19T23:47:05.942Z,6.47
2023-04-19T23:52:08.278Z,5.91
2023-04-19T23:57:10.531Z,5.15
